Time;durP1;ratioP1;P1;durP2;ratioP2;P2;SDS_P1;SDS_P2;PMS_P1;PMS_P2;Temp;Humidity;BMP_temperature;BMP_pressure;BME280_temperature;BME280_humidity;BME280_pressure;Samples;Min_cycle;Max_cycle;Signal;HPM_P1;HPM_P2
2022/06/08 04:39:24;;;;;;;4.65;2.27;;;;;;;18.49;75.76;100000.77;1716766;83;21144;-48
2022/06/08 04:41:56;;;;;;;6.95;1.77;;;;;;;18.68;75.87;100002.78;1716390;83;21018;-43
2022/06/08 04:44:25;;;;;;;8.78;3.30;;;;;;;18.80;75.55;99999.20;1716516;83;21113;-43
2022/06/08 04:46:52;;;;;;;12.25;2.17;;;;;;;18.92;75.16;100000.51;1716588;82;21069;-50
2022/06/08 04:49:21;;;;;;;5.65;1.92;;;;;;;19.04;74.65;100001.81;1716453;83;21113;-49
2022/06/08 04:51:48;;;;;;;7.30;2.12;;;;;;;19.17;73.60;99996.88;1717389;83;21033;-49
2022/06/08 04:54:16;;;;;;;7.28;2.25;;;;;;;19.28;73.05;99995.52;1716908;83;21061;-49
2022/06/08 04:56:43;;;;;;;6.20;2.20;;;;;;;19.41;73.05;100006.49;1716979;82;21006;-49
2022/06/08 04:59:10;;;;;;;7.30;2.70;;;;;;;19.56;72.59;99993.94;1659517;85;21058;-41
2022/06/08 05:01:38;;;;;;;7.62;2.42;;;;;;;19.71;72.08;99992.45;1686972;84;21081;-49
2022/06/08 05:04:08;;;;;;;3.90;2.10;;;;;;;19.86;71.61;99997.58;1716270;83;21636;-49
2022/06/08 05:06:36;;;;;;;3.87;2.65;;;;;;;20.01;71.20;99995.60;1659475;85;21083;-41
2022/06/08 05:09:03;;;;;;;3.58;2.30;;;;;;;20.15;70.72;99996.31;1658786;85;21081;-41
2022/06/08 05:11:33;;;;;;;10.45;2.90;;;;;;;20.28;70.67;99987.33;1715857;83;21030;-49
2022/06/08 05:14:02;;;;;;;6.75;2.37;;;;;;;20.43;70.45;99990.17;1716113;83;21078;-49
2022/06/08 05:16:29;;;;;;;5.15;2.25;;;;;;;20.58;70.25;99984.64;1715892;83;21054;-42
2022/06/08 05:18:57;;;;;;;11.90;3.45;;;;;;;20.75;70.25;99981.20;1715101;83;21124;-42
2022/06/08 05:21:24;;;;;;;12.55;2.47;;;;;;;20.89;70.15;99974.78;1695371;83;21034;-49
2022/06/08 05:23:51;;;;;;;7.03;2.20;;;;;;;21.06;69.82;99974.45;1710969;83;21071;-48
2022/06/08 05:26:19;;;;;;;4.15;1.65;;;;;;;21.24;69.27;99981.06;1716733;82;21110;-42
2022/06/08 05:28:46;;;;;;;9.13;2.37;;;;;;;21.42;68.72;99981.13;1721770;82;21122;-49
2022/06/08 05:31:13;;;;;;;7.85;2.25;;;;;;;21.60;68.52;99981.53;1708413;83;21608;-42
2022/06/08 05:33:43;;;;;;;5.65;2.00;;;;;;;21.79;67.45;99980.13;1721819;82;21074;-42
2022/06/08 05:36:11;;;;;;;7.05;1.72;;;;;;;21.97;66.72;99975.17;1721412;83;21094;-42
2022/06/08 05:38:38;;;;;;;13.20;2.45;;;;;;;22.19;66.17;99986.08;1721749;83;21051;-42
2022/06/08 05:41:06;;;;;;;15.55;2.40;;;;;;;22.39;60.95;99980.56;1719438;82;21070;-43
2022/06/08 05:43:34;;;;;;;12.65;2.70;;;;;;;22.61;56.21;99981.57;1722241;83;21437;-41
2022/06/08 05:46:02;;;;;;;11.97;2.98;;;;;;;22.80;53.12;99980.97;1722483;82;21575;-42
2022/06/08 05:48:28;;;;;;;11.90;2.42;;;;;;;23.00;52.07;99975.88;1718093;83;21032;-41
2022/06/08 05:50:57;;;;;;;6.40;2.42;;;;;;;23.16;51.37;99977.20;1717083;82;21034;-42
2022/06/08 05:53:24;;;;;;;12.45;2.40;;;;;;;23.32;49.18;99971.86;1722605;82;21071;-41
2022/06/08 05:55:51;;;;;;;10.93;2.95;;;;;;;23.44;48.25;99972.48;1722508;83;21538;-49
2022/06/08 05:58:18;;;;;;;7.25;2.12;;;;;;;23.56;48.33;99971.77;1719205;83;21488;-41
2022/06/08 06:00:46;;;;;;;4.70;1.98;;;;;;;23.69;48.89;99972.41;1716960;83;21015;-42
2022/06/08 06:03:15;;;;;;;4.85;1.80;;;;;;;23.81;47.65;99972.52;1716072;83;21142;-42
2022/06/08 06:05:42;;;;;;;7.50;2.52;;;;;;;23.94;47.88;99970.45;1716901;83;21003;-41
2022/06/08 06:08:12;;;;;;;7.22;2.47;;;;;;;24.07;46.74;99977.66;1661122;85;21069;-42
2022/06/08 06:10:44;;;;;;;6.30;2.40;;;;;;;24.19;46.13;99975.19;1713585;83;21037;-49
2022/06/08 06:13:13;;;;;;;7.20;2.35;;;;;;;24.30;46.83;99974.91;1708100;83;21089;-42
2022/06/08 06:15:47;;;;;;;5.55;2.90;;;;;;;24.39;45.21;99974.35;1723044;83;21059;-48
2022/06/08 06:18:15;;;;;;;6.65;2.60;;;;;;;24.50;44.86;99973.69;1720030;83;21032;-49
2022/06/08 06:20:42;;;;;;;4.25;2.60;;;;;;;24.58;44.07;99963.35;1715015;82;21046;-42
2022/06/08 06:23:17;;;;;;;4.83;2.40;;;;;;;24.68;44.50;99966.31;1721679;83;21078;-42
2022/06/08 06:25:45;;;;;;;4.30;2.20;;;;;;;24.76;44.45;99961.80;1721453;83;21055;-43
2022/06/08 06:28:31;;;;;;;5.03;2.08;;;;;;;24.85;44.35;99958.07;1715130;83;21603;-49
2022/06/08 06:31:20;;;;;;;4.30;2.08;;;;;;;24.96;43.35;99958.72;1719397;82;21141;-43
2022/06/08 06:33:48;;;;;;;10.00;2.00;;;;;;;25.07;43.80;99956.24;1717033;83;21091;-42
2022/06/08 06:36:15;;;;;;;5.40;1.90;;;;;;;25.24;42.63;99955.14;1704660;83;21023;-42
2022/06/08 06:38:42;;;;;;;3.35;1.62;;;;;;;25.24;42.63;99955.14;1716369;83;21620;-49
2022/06/08 06:41:12;;;;;;;7.17;2.20;;;;;;;25.31;44.13;99959.59;1717189;82;21019;-49
2022/06/08 06:43:39;;;;;;;3.15;2.65;;;;;;;25.31;42.13;99943.05;1718934;82;21011;-49
2022/06/08 06:46:15;;;;;;;11.30;2.55;;;;;;;25.35;40.15;99945.91;1712784;82;21035;-49
2022/06/08 06:48:55;;;;;;;6.15;2.15;;;;;;;25.38;42.40;99947.52;1636725;86;22054;-49
2022/06/08 06:51:22;;;;;;;3.05;1.60;;;;;;;25.42;42.18;99947.70;1636756;86;21038;-51
2022/06/08 06:53:49;;;;;;;4.62;1.55;;;;;;;25.55;42.03;99949.06;1633698;86;21023;-49
2022/06/08 06:56:17;;;;;;;4.20;1.67;;;;;;;25.64;42.29;99948.45;1634078;86;21057;-43
2022/06/08 06:58:48;;;;;;;7.45;2.05;;;;;;;25.71;41.89;99944.39;1627765;86;21643;-50
2022/06/08 07:01:16;;;;;;;4.70;1.75;;;;;;;25.78;41.16;99946.20;1604733;88;21097;-43
2022/06/08 07:03:45;;;;;;;3.58;1.37;;;;;;;25.83;40.92;99951.62;1609633;87;21248;-43
2022/06/08 07:06:13;;;;;;;6.15;2.08;;;;;;;25.90;41.10;99946.20;1579636;89;21057;-44
2022/06/08 07:08:39;;;;;;;4.22;2.08;;;;;;;25.98;40.14;99949.23;1631721;84;21059;-49
2022/06/08 07:13:52;;;;;;;8.58;1.20;;;;;;;26.09;39.46;99936.42;1629470;84;21116;-42
2022/06/08 07:16:20;;;;;;;6.28;1.55;;;;;;;26.13;40.79;99938.39;1637248;86;21049;-49
2022/06/08 07:18:46;;;;;;;5.12;1.35;;;;;;;26.18;39.97;99938.93;1634046;86;21029;-43
2022/06/08 07:21:14;;;;;;;9.65;2.72;;;;;;;26.19;39.36;99937.95;1626699;86;21101;-43
2022/06/08 07:23:41;;;;;;;5.15;1.62;;;;;;;26.11;40.05;99937.66;1629095;83;21046;-50
2022/06/08 07:26:08;;;;;;;4.25;1.30;;;;;;;26.01;39.89;99937.42;1710318;82;20976;-50
2022/06/08 07:28:35;;;;;;;3.70;1.25;;;;;;;25.97;41.51;99935.43;1715868;81;21494;-50
2022/06/08 07:31:03;;;;;;;4.42;1.25;;;;;;;26.04;41.28;99935.03;1707796;82;20987;-42
2022/06/08 07:33:30;;;;;;;3.08;1.55;;;;;;;26.14;40.50;99931.57;1706677;82;21041;-42
2022/06/08 07:35:57;;;;;;;3.83;1.30;;;;;;;26.14;40.79;99929.38;1705945;82;21522;-50
2022/06/08 07:38:24;;;;;;;3.52;1.45;;;;;;;26.07;40.74;99928.95;1711525;81;21008;-50
2022/06/08 07:40:51;;;;;;;3.58;1.20;;;;;;;26.01;40.88;99930.73;1706034;81;21881;-43
2022/06/08 07:43:19;;;;;;;4.78;1.20;;;;;;;25.96;40.58;99924.34;1713519;82;21327;-43
2022/06/08 07:45:46;;;;;;;1.35;1.25;;;;;;;25.96;39.78;99931.04;1711626;82;21609;-51
2022/06/08 07:50:57;;;;;;;6.22;1.50;;;;;;;26.20;39.71;99924.92;1710558;81;21057;-51
2022/06/08 07:53:24;;;;;;;2.67;1.17;;;;;;;26.39;39.14;99923.16;1712453;81;20984;-42
2022/06/08 07:55:51;;;;;;;4.53;1.17;;;;;;;26.52;39.06;99916.83;1711943;81;21026;-42
2022/06/08 07:58:18;;;;;;;9.15;1.98;;;;;;;26.54;39.59;99919.39;1705108;82;21010;-49
2022/06/08 08:00:49;;;;;;;1.95;1.12;;;;;;;26.53;41.54;99913.17;1689878;83;21022;-49
2022/06/08 08:03:15;;;;;;;2.42;1.60;;;;;;;26.47;41.64;99923.48;1708869;82;21074;-49
2022/06/08 08:05:43;;;;;;;1.27;1.05;;;;;;;26.43;41.75;99916.13;1701165;81;21355;-42
2022/06/08 08:08:10;;;;;;;3.52;1.10;;;;;;;26.43;38.56;99915.28;1708782;83;21460;-42
2022/06/08 08:10:38;;;;;;;4.50;1.30;;;;;;;26.43;38.31;99921.50;1718250;81;21394;-43
2022/06/08 08:13:07;;;;;;;3.10;1.37;;;;;;;26.46;38.95;99915.08;1713579;82;21030;-50
2022/06/08 08:15:34;;;;;;;1.92;1.20;;;;;;;26.58;39.19;99916.02;1712663;82;20980;-42
2022/06/08 08:18:02;;;;;;;1.98;1.10;;;;;;;26.69;39.10;99909.39;1716874;81;21040;-46
2022/06/08 08:20:30;;;;;;;1.70;1.15;;;;;;;26.68;38.31;99910.36;1715685;82;21443;-50
2022/06/08 08:22:57;;;;;;;1.75;1.30;;;;;;;26.66;39.34;99906.42;1715444;81;20993;-43
2022/06/08 08:25:25;;;;;;;1.40;1.20;;;;;;;26.69;39.25;99906.70;1717378;83;21000;-50
2022/06/08 08:27:52;;;;;;;2.98;1.50;;;;;;;26.80;38.83;99905.44;1720253;82;21046;-50
2022/06/08 08:30:22;;;;;;;5.45;1.10;;;;;;;26.97;38.65;99898.83;1719938;83;21594;-50
2022/06/08 08:32:49;;;;;;;3.08;1.35;;;;;;;27.06;38.42;99904.87;1702964;82;21023;-50
2022/06/08 08:35:17;;;;;;;2.37;1.05;;;;;;;27.12;36.19;99898.19;1686942;83;21000;-43
2022/06/08 08:37:45;;;;;;;3.45;1.10;;;;;;;27.07;35.89;99896.33;1710724;82;20967;-51
2022/06/08 08:40:39;;;;;;;6.80;1.60;;;;;;;27.04;35.69;99901.41;1712290;83;20998;-49
2022/06/08 08:43:09;;;;;;;2.70;1.42;;;;;;;27.11;36.56;99899.16;1639583;85;21128;-49
2022/06/08 08:45:47;;;;;;;3.70;1.95;;;;;;;27.27;36.80;99897.05;1646187;85;21014;-50
2022/06/08 08:48:29;;;;;;;4.78;1.32;;;;;;;27.39;36.88;99896.11;1640155;86;21065;-49
2022/06/08 08:51:07;;;;;;;1.30;1.10;;;;;;;27.49;35.90;99893.59;1633843;86;21372;-42
2022/06/08 08:54:14;;;;;;;3.67;1.47;;;;;;;27.57;34.80;99887.98;1642659;86;21150;-41
2022/06/08 08:56:43;;;;;;;1.30;1.20;;;;;;;27.55;35.70;99895.31;1573601;89;21031;-42
2022/06/08 08:59:15;;;;;;;4.37;1.20;;;;;;;27.62;34.95;99888.13;1576145;89;21044;-42
2022/06/08 09:01:44;;;;;;;13.72;2.27;;;;;;;27.70;34.87;99883.88;1574931;89;21042;-43
2022/06/08 09:04:34;;;;;;;9.13;2.35;;;;;;;27.80;34.23;99881.34;1574164;89;21069;-43
2022/06/08 09:07:13;;;;;;;2.42;1.20;;;;;;;27.89;35.35;99875.27;1575496;89;21017;-43
2022/06/08 09:09:41;;;;;;;2.75;1.22;;;;;;;28.02;34.23;99880.52;1580638;88;21705;-43
2022/06/08 09:12:15;;;;;;;2.62;0.90;;;;;;;28.08;34.58;99867.94;1574949;90;21052;-42
2022/06/08 09:14:57;;;;;;;8.03;1.35;;;;;;;28.05;33.15;99868.16;1579272;90;21201;-43
2022/06/08 09:17:36;;;;;;;3.60;1.27;;;;;;;28.00;33.87;99867.67;1550740;91;21573;-43
2022/06/08 09:20:26;;;;;;;1.93;1.10;;;;;;;28.05;34.10;99862.30;1590756;88;21065;-43
2022/06/08 09:22:55;;;;;;;3.50;1.50;;;;;;;28.15;34.16;99861.58;1614988;88;21530;-43
2022/06/08 09:25:34;;;;;;;3.20;1.12;;;;;;;28.17;33.49;99858.27;1612364;88;21057;-42
2022/06/08 09:28:02;;;;;;;2.47;1.47;;;;;;;28.16;34.28;99854.72;1606434;87;21100;-42
2022/06/08 09:30:34;;;;;;;4.92;1.40;;;;;;;28.18;34.71;99858.63;1608065;88;21543;-51
2022/06/08 09:33:33;;;;;;;1.90;1.15;;;;;;;28.25;34.24;99861.21;1641708;82;21611;-49
2022/06/08 09:36:05;;;;;;;6.80;1.90;;;;;;;28.31;33.94;99855.34;1660122;85;21525;-49
2022/06/08 09:38:36;;;;;;;;;;;;;;;28.33;34.10;99857.44;1719222;81;21045;-50
2022/06/08 09:41:17;;;;;;;1.20;1.10;;;;;;;28.35;34.55;99859.50;1719161;82;20143;-49
2022/06/08 09:44:02;;;;;;;1.98;1.00;;;;;;;28.35;34.43;99856.81;1713658;82;22271;-50
2022/06/08 09:53:59;;;;;;;2.50;1.20;;;;;;;28.35;33.98;99849.63;1709220;82;21632;-49
2022/06/08 09:57:07;;;;;;;1.37;1.05;;;;;;;28.36;33.77;99851.83;1604351;87;21015;-50
2022/06/08 10:00:12;;;;;;;2.85;1.20;;;;;;;28.39;33.66;99844.84;1612749;87;21073;-51
2022/06/08 10:03:05;;;;;;;2.60;1.00;;;;;;;28.41;33.89;99852.77;1608524;87;22222;-49
2022/06/08 10:05:59;;;;;;;1.87;1.10;;;;;;;28.35;33.38;99847.40;1607609;87;21073;-49
2022/06/08 10:08:32;;;;;;;7.80;1.85;;;;;;;28.30;33.16;99837.01;1610505;87;21050;-49
2022/06/08 10:11:34;;;;;;;2.83;1.42;;;;;;;28.27;34.01;99836.39;1558218;90;21010;-49
2022/06/08 10:30:03;;;;;;;1.80;1.10;;;;;;;28.18;35.61;99830.39;1851172;77;22522;-46
2022/06/08 10:32:54;;;;;;;2.98;1.20;;;;;;;28.28;33.87;99827.33;1800994;78;21028;-40
2022/06/08 10:35:45;;;;;;;7.12;1.35;;;;;;;28.53;32.97;99824.41;1776663;80;21105;-47
2022/06/08 10:38:28;;;;;;;2.95;1.25;;;;;;;28.73;33.39;99823.23;1805081;78;21167;-42
2022/06/08 10:42:39;;;;;;;1.32;1.20;;;;;;;28.94;32.91;99830.06;1801851;79;21462;-46
2022/06/08 10:43:43;;;;;;;1.92;1.15;;;;;;;28.92;31.39;99822.55;1782946;78;21004;-43
2022/06/08 10:46:37;;;;;;;7.17;1.27;;;;;;;28.94;32.70;99825.53;1832334;78;21016;-47
2022/06/08 10:49:07;;;;;;;1.92;1.12;;;;;;;29.02;32.48;99821.69;1784272;79;21118;-48
2022/06/08 10:51:39;;;;;;;1.60;1.15;;;;;;;29.09;32.94;99824.72;1745983;79;21019;-42
2022/06/08 10:57:49;;;;;;;1.60;1.30;;;;;;;29.33;32.13;99821.77;1804928;78;21119;-47
2022/06/08 11:00:25;;;;;;;4.90;1.27;;;;;;;29.49;31.64;99819.47;1685615;83;21116;-41
2022/06/08 11:03:02;;;;;;;;;;;;;;;29.62;31.49;99812.55;1661095;83;21084;-46
2022/06/08 11:05:37;;;;;;;1.47;1.00;;;;;;;29.61;31.05;99820.29;1726011;83;20113;-46
2022/06/08 11:08:14;;;;;;;2.37;1.12;;;;;;;29.53;30.84;99812.03;1689410;84;21088;-46
2022/06/08 11:10:53;;;;;;;3.17;1.40;;;;;;;29.40;31.51;99814.90;1695699;84;21024;-40
2022/06/08 11:13:36;;;;;;;3.77;1.15;;;;;;;29.19;32.22;99814.03;1692537;85;21211;-46
2022/06/08 11:16:28;;;;;;;2.52;1.15;;;;;;;28.90;32.39;99814.12;1691761;84;21142;-47
2022/06/08 11:19:06;;;;;;;3.10;1.22;;;;;;;28.61;31.41;99807.12;1659905;86;21188;-42
2022/06/08 11:21:57;;;;;;;4.30;1.72;;;;;;;28.36;31.44;99806.95;1646591;86;21111;-41
2022/06/08 11:24:43;;;;;;;3.37;1.17;;;;;;;28.31;32.25;99802.41;1667326;86;21033;-42
2022/06/08 11:27:26;;;;;;;1.50;1.17;;;;;;;28.39;33.18;99797.77;1663929;85;21134;-41
2022/06/08 11:30:25;;;;;;;5.72;1.40;;;;;;;28.46;33.18;99797.62;1623823;87;21035;-48
2022/06/08 11:33:06;;;;;;;2.03;1.17;;;;;;;28.50;32.88;99800.92;1629718;87;21161;-46
2022/06/08 11:36:14;;;;;;;1.72;1.20;;;;;;;28.48;32.46;99795.67;1661104;83;21004;-46
2022/06/08 11:38:55;;;;;;;2.55;1.00;;;;;;;28.44;32.40;99800.94;1702771;82;21229;-48
2022/06/08 11:41:38;;;;;;;1.87;1.22;;;;;;;28.41;32.00;99794.45;1708081;84;21033;-43
2022/06/08 11:44:20;;;;;;;2.65;1.25;;;;;;;28.41;32.44;99790.91;1666247;85;21113;-41
2022/06/08 11:46:55;;;;;;;3.72;1.20;;;;;;;28.39;31.64;99787.50;1663093;84;21005;-43
2022/06/08 11:49:40;;;;;;;5.97;1.50;;;;;;;28.37;31.14;99778.22;1718076;82;21551;-49
2022/06/08 11:52:32;;;;;;;2.75;1.32;;;;;;;28.35;32.42;99779.70;1681716;84;21125;-42
2022/06/08 11:55:10;;;;;;;1.55;1.45;;;;;;;28.34;33.09;99779.30;1755781;80;21555;-41
2022/06/08 11:58:12;;;;;;;5.92;1.42;;;;;;;28.33;32.56;99776.75;1764371;80;21032;-41
2022/06/08 12:00:51;;;;;;;;;;;;;;;28.33;32.71;99778.09;1714935;83;21100;-47
2022/06/08 12:03:42;;;;;;;1.67;1.20;;;;;;;28.37;32.67;99772.84;1710828;84;20118;-41
2022/06/08 12:06:24;;;;;;;4.42;2.42;;;;;;;28.28;33.52;99778.92;1698852;84;21539;-41
2022/06/08 12:08:58;;;;;;;2.20;1.57;;;;;;;28.16;32.97;99774.05;1696467;84;21115;-48
2022/06/08 12:11:29;;;;;;;3.17;1.67;;;;;;;28.11;32.78;99773.08;1647564;86;21665;-41
2022/06/08 12:14:23;;;;;;;;;;;;;;;28.17;32.70;99767.69;1672329;84;21069;-40
2022/06/08 12:17:10;;;;;;;2.37;1.45;;;;;;;28.23;29.86;99760.96;1642399;87;20136;-44
2022/06/08 12:36:13;;;;;;;1.87;1.60;;;;;;;28.62;32.28;99755.02;1823000;78;22759;-47
2022/06/08 12:39:05;;;;;;;2.45;1.37;;;;;;;28.63;32.11;99752.68;1757597;80;21426;-40
2022/06/08 12:41:45;;;;;;;4.92;1.85;;;;;;;28.67;31.55;99753.30;1761791;80;21102;-40
2022/06/08 12:44:20;;;;;;;1.98;1.45;;;;;;;28.74;32.14;99752.28;1702362;81;21116;-40
2022/06/08 12:47:00;;;;;;;2.15;1.50;;;;;;;28.75;32.00;99749.95;1733410;81;21074;-41
2022/06/08 12:49:41;;;;;;;4.72;1.30;;;;;;;28.69;31.32;99747.28;1714821;81;21557;-46
2022/06/08 12:52:26;;;;;;;4.80;1.40;;;;;;;28.75;31.57;99742.72;1643374;84;21590;-41
2022/06/08 12:54:57;;;;;;;1.62;1.20;;;;;;;28.79;31.86;99746.02;1669297;84;21130;-46
2022/06/08 12:57:28;;;;;;;4.37;1.62;;;;;;;28.82;29.89;99737.21;1613823;86;21078;-46
2022/06/08 13:00:00;;;;;;;1.52;1.42;;;;;;;28.86;29.85;99731.05;1635623;86;21418;-46
2022/06/08 13:02:37;;;;;;;5.03;1.50;;;;;;;28.86;31.27;99741.33;1657150;86;21069;-40
2022/06/08 13:05:25;;;;;;;3.50;1.42;;;;;;;28.91;31.70;99742.29;1587973;88;21055;-41
2022/06/08 13:07:57;;;;;;;1.20;1.10;;;;;;;29.01;31.09;99742.41;1630133;88;21020;-41
2022/06/08 13:10:23;;;;;;;5.05;1.30;;;;;;;29.00;30.24;99736.16;1621435;86;21078;-42
2022/06/08 13:12:54;;;;;;;5.97;1.47;;;;;;;28.97;30.69;99742.30;1634438;86;21190;-47
2022/06/08 13:15:28;;;;;;;2.17;1.35;;;;;;;28.93;30.57;99736.80;1633978;86;21106;-46
2022/06/08 13:17:56;;;;;;;2.67;1.30;;;;;;;28.80;30.01;99734.27;1635035;86;21055;-40
2022/06/08 13:20:32;;;;;;;3.35;1.17;;;;;;;28.75;31.20;99730.61;1656952;86;21074;-40
2022/06/08 13:23:00;;;;;;;3.00;1.45;;;;;;;28.79;31.58;99728.53;1656767;86;21529;-45
